Terminal Aerodrome Forecast
Issued by NWS

Home | Current Version | Previous Version | Text Only | Print | Product List | Glossary On
Versions: 1 2 3 4 5 6 7 8 9 10 11 12 13 14 15 16 17 18 19
734
FTUS46 KSEW 200538
TAFOLM
TAF
KOLM 200538Z 2006/2106 17004KT P6SM VCSH BKN050 OVC100
     FM201400 06004KT P6SM SCT050 OVC100
     FM201700 07004KT P6SM -RA OVC050
     FM202200 07005KT P6SM VCSH SCT030 OVC050
     FM210100 VRB03KT P6SM SCT050 OVC080=

USA.gov is the U.S. government's official web portal to all federal, state and local government web resources and services.